Time;durP1;ratioP1;P1;durP2;ratioP2;P2;SDS_P1;SDS_P2;PMS_P1;PMS_P2;Temp;Humidity;BMP_temperature;BMP_pressure;BME280_temperature;BME280_humidity;BME280_pressure;Samples;Min_cycle;Max_cycle;Signal;HPM_P1;HPM_P2
2023/04/03 00:02:19;;;;;;;15.35;2.90;;;;;;;;;;5050108;28;20029;-73
2023/04/03 00:04:45;;;;;;;12.40;2.97;;;;;;;;;;5050544;28;20037;-74
2023/04/03 00:07:12;;;;;;;14.05;3.00;;;;;;;;;;5050496;28;20092;-72
2023/04/03 00:09:38;;;;;;;12.40;3.17;;;;;;;;;;5050417;28;20052;-72
2023/04/03 00:12:04;;;;;;;16.13;3.28;;;;;;;;;;5049859;28;20025;-72
2023/04/03 00:14:30;;;;;;;15.38;3.00;;;;;;;;;;5050264;28;20052;-72
2023/04/03 00:16:56;;;;;;;16.85;3.28;;;;;;;;;;5050415;28;20091;-73
2023/04/03 00:19:22;;;;;;;12.60;2.85;;;;;;;;;;5050362;28;20093;-73
2023/04/03 00:21:48;;;;;;;11.27;3.42;;;;;;;;;;5049987;28;20040;-74
2023/04/03 00:24:14;;;;;;;13.65;2.92;;;;;;;;;;5050363;28;20092;-73
2023/04/03 00:26:40;;;;;;;11.77;3.60;;;;;;;;;;5050638;28;20075;-71
2023/04/03 00:29:06;;;;;;;12.57;2.92;;;;;;;;;;5050243;28;20021;-72
2023/04/03 00:31:32;;;;;;;11.77;3.10;;;;;;;;;;5050466;28;20092;-71
2023/04/03 00:33:58;;;;;;;8.70;2.90;;;;;;;;;;5050639;28;20107;-71
2023/04/03 00:36:25;;;;;;;9.00;2.55;;;;;;;;;;5053976;28;20028;-70
2023/04/03 00:38:51;;;;;;;13.05;2.95;;;;;;;;;;5053896;28;20117;-71
2023/04/03 00:41:17;;;;;;;11.02;2.80;;;;;;;;;;5053855;28;20036;-72
2023/04/03 00:43:42;;;;;;;10.65;3.13;;;;;;;;;;5053667;28;20025;-72
2023/04/03 00:46:08;;;;;;;16.42;3.10;;;;;;;;;;5053756;28;20097;-72
2023/04/03 00:48:40;;;;;;;12.85;3.20;;;;;;;;;;5053829;28;20025;-73
2023/04/03 00:51:07;;;;;;;12.20;3.33;;;;;;;;;;5053763;28;20029;-72
2023/04/03 00:53:54;;;;;;;14.25;3.22;;;;;;;;;;5053324;28;20036;-71
2023/04/03 00:56:22;;;;;;;15.07;3.17;;;;;;;;;;5053414;28;20051;-71
2023/04/03 00:58:58;;;;;;;12.65;3.42;;;;;;;;;;5053422;28;20025;-71
2023/04/03 01:01:25;;;;;;;8.57;2.90;;;;;;;;;;5053508;28;20024;-72
2023/04/03 01:03:51;;;;;;;15.75;3.22;;;;;;;;;;5053257;28;20025;-73
2023/04/03 01:06:20;;;;;;;11.90;3.17;;;;;;;;;;5053418;28;20087;-72
2023/04/03 01:08:48;;;;;;;7.90;2.60;;;;;;;;;;5053469;28;20103;-72
2023/04/03 01:11:14;;;;;;;11.65;3.30;;;;;;;;;;5053881;28;20099;-72
2023/04/03 01:13:41;;;;;;;12.48;3.28;;;;;;;;;;5053025;28;20416;-71
2023/04/03 01:16:07;;;;;;;11.05;3.17;;;;;;;;;;5053456;28;20060;-72
2023/04/03 01:18:34;;;;;;;14.25;3.45;;;;;;;;;;5053446;28;20051;-71
2023/04/03 01:21:19;;;;;;;16.60;3.13;;;;;;;;;;5052997;28;20381;-72
2023/04/03 01:23:50;;;;;;;12.88;3.30;;;;;;;;;;5052850;28;20021;-72
2023/04/03 01:26:16;;;;;;;8.18;2.63;;;;;;;;;;5053148;28;20135;-72
2023/04/03 01:28:42;;;;;;;10.77;2.95;;;;;;;;;;5053029;28;20017;-71
2023/04/03 01:31:19;;;;;;;16.08;3.45;;;;;;;;;;5053091;28;20040;-72
2023/04/03 01:33:45;;;;;;;16.10;3.75;;;;;;;;;;5052719;28;20163;-71
2023/04/03 01:36:15;;;;;;;11.05;3.03;;;;;;;;;;5053090;28;20032;-71
2023/04/03 01:38:41;;;;;;;15.25;3.10;;;;;;;;;;5052755;28;20032;-72
2023/04/03 01:41:07;;;;;;;12.00;3.30;;;;;;;;;;5052270;28;20051;-71
2023/04/03 01:43:33;;;;;;;14.98;3.05;;;;;;;;;;5053416;28;20544;-71
2023/04/03 01:45:59;;;;;;;12.93;2.92;;;;;;;;;;5052630;28;20021;-72
2023/04/03 01:48:25;;;;;;;15.45;3.17;;;;;;;;;;5053555;28;20017;-72
2023/04/03 01:50:51;;;;;;;11.15;3.03;;;;;;;;;;5053729;28;20056;-73
2023/04/03 01:53:17;;;;;;;9.75;2.95;;;;;;;;;;5053296;28;20112;-72
2023/04/03 01:55:43;;;;;;;19.08;3.53;;;;;;;;;;5053549;28;20029;-72
2023/04/03 01:58:09;;;;;;;14.35;3.60;;;;;;;;;;5053671;28;20029;-73
2023/04/03 02:00:35;;;;;;;15.13;3.10;;;;;;;;;;5053223;28;20021;-72
2023/04/03 02:03:02;;;;;;;14.43;3.38;;;;;;;;;;5053139;28;20394;-73
2023/04/03 02:05:28;;;;;;;12.60;3.28;;;;;;;;;;5053496;28;20025;-73
2023/04/03 02:07:54;;;;;;;12.88;3.42;;;;;;;;;;5053221;28;20529;-73
2023/04/03 02:10:20;;;;;;;13.38;3.45;;;;;;;;;;5053684;28;20028;-74
2023/04/03 02:12:46;;;;;;;14.07;3.67;;;;;;;;;;5053169;28;20057;-73
2023/04/03 02:15:12;;;;;;;14.73;3.38;;;;;;;;;;5053289;28;20087;-73
2023/04/03 02:17:38;;;;;;;20.25;4.10;;;;;;;;;;5053081;28;20033;-75
2023/04/03 02:20:04;;;;;;;16.45;3.53;;;;;;;;;;5053007;28;20386;-73
2023/04/03 02:22:30;;;;;;;12.93;3.35;;;;;;;;;;5052724;28;20497;-73
2023/04/03 02:24:56;;;;;;;12.55;3.53;;;;;;;;;;5053090;28;20035;-72
2023/04/03 02:27:22;;;;;;;9.82;2.92;;;;;;;;;;5053609;28;20096;-73
2023/04/03 02:29:48;;;;;;;12.52;3.38;;;;;;;;;;5052966;28;20490;-73
2023/04/03 02:32:14;;;;;;;14.50;3.58;;;;;;;;;;5052770;28;20104;-73
2023/04/03 02:34:40;;;;;;;11.43;3.25;;;;;;;;;;5052819;28;20029;-72
2023/04/03 02:37:06;;;;;;;13.43;3.35;;;;;;;;;;5052606;28;20029;-74
2023/04/03 02:39:32;;;;;;;13.45;4.20;;;;;;;;;;5052691;28;20074;-73
2023/04/03 02:41:58;;;;;;;10.27;3.55;;;;;;;;;;5052275;28;20489;-72
2023/04/03 02:44:24;;;;;;;10.98;3.25;;;;;;;;;;5050253;28;20020;-73
2023/04/03 02:46:50;;;;;;;11.48;3.60;;;;;;;;;;5063007;28;20032;-72
2023/04/03 02:49:16;;;;;;;12.82;3.80;;;;;;;;;;5053066;28;20422;-72
2023/04/03 02:51:42;;;;;;;13.77;4.68;;;;;;;;;;5072106;28;20029;-73
2023/04/03 02:54:08;;;;;;;17.52;4.45;;;;;;;;;;5072204;28;20478;-73
2023/04/03 02:56:34;;;;;;;15.73;3.95;;;;;;;;;;5071932;28;20192;-72
2023/04/03 02:59:00;;;;;;;17.90;4.13;;;;;;;;;;5072181;28;20099;-72
2023/04/03 03:01:31;;;;;;;13.00;3.47;;;;;;;;;;5071942;28;20036;-72
2023/04/03 03:03:57;;;;;;;18.13;5.90;;;;;;;;;;5071608;28;20024;-73
2023/04/03 03:06:23;;;;;;;11.48;3.58;;;;;;;;;;5072132;28;20121;-73
2023/04/03 03:08:49;;;;;;;17.65;6.05;;;;;;;;;;5072021;28;20363;-73
2023/04/03 03:11:15;;;;;;;15.52;5.75;;;;;;;;;;5071983;28;20138;-72
2023/04/03 03:13:41;;;;;;;20.13;4.50;;;;;;;;;;5071350;28;20033;-73
2023/04/03 03:16:08;;;;;;;16.10;4.15;;;;;;;;;;5072098;28;20104;-72
2023/04/03 03:18:34;;;;;;;13.20;3.47;;;;;;;;;;5071776;28;20082;-74
2023/04/03 03:21:00;;;;;;;16.80;3.70;;;;;;;;;;5071378;28;20079;-75
2023/04/03 03:23:27;;;;;;;23.30;6.10;;;;;;;;;;5071412;28;20029;-79
2023/04/03 03:25:57;;;;;;;21.60;7.00;;;;;;;;;;5071872;28;20393;-72
2023/04/03 03:28:23;;;;;;;18.05;5.10;;;;;;;;;;5071823;28;20645;-72
2023/04/03 03:30:49;;;;;;;19.92;4.63;;;;;;;;;;5071602;28;20033;-72
2023/04/03 03:33:17;;;;;;;17.58;5.20;;;;;;;;;;5071579;28;20021;-73
2023/04/03 03:35:43;;;;;;;18.50;4.45;;;;;;;;;;5071843;28;20462;-72
2023/04/03 03:38:09;;;;;;;18.35;4.50;;;;;;;;;;5071648;28;20043;-71
2023/04/03 03:40:35;;;;;;;19.42;4.22;;;;;;;;;;5071652;28;20025;-73
2023/04/03 03:43:01;;;;;;;23.02;4.43;;;;;;;;;;5071483;28;20047;-72
2023/04/03 03:45:27;;;;;;;14.20;3.83;;;;;;;;;;5071773;28;20021;-73
2023/04/03 03:47:53;;;;;;;16.05;4.80;;;;;;;;;;5071601;28;20070;-73
2023/04/03 03:50:19;;;;;;;16.48;5.45;;;;;;;;;;5071462;28;20033;-71
2023/04/03 03:52:45;;;;;;;16.05;6.10;;;;;;;;;;5070901;28;20028;-72
2023/04/03 03:55:11;;;;;;;15.05;5.65;;;;;;;;;;5071618;28;20031;-72
2023/04/03 03:57:37;;;;;;;16.73;5.10;;;;;;;;;;5071325;28;20044;-72
2023/04/03 04:00:04;;;;;;;21.67;4.68;;;;;;;;;;5071536;28;20396;-72
2023/04/03 04:02:30;;;;;;;17.25;5.25;;;;;;;;;;5071083;28;20020;-72
2023/04/03 04:04:56;;;;;;;92.68;36.75;;;;;;;;;;5071376;28;20074;-72
2023/04/03 04:07:22;;;;;;;46.20;17.67;;;;;;;;;;5071216;28;20024;-71
2023/04/03 04:09:48;;;;;;;17.80;7.20;;;;;;;;;;5073481;28;20469;-72
2023/04/03 04:12:14;;;;;;;19.23;6.53;;;;;;;;;;5075385;28;20025;-72
2023/04/03 04:14:40;;;;;;;21.17;7.50;;;;;;;;;;5075524;28;20052;-71
2023/04/03 04:17:06;;;;;;;27.67;8.68;;;;;;;;;;5075149;28;20033;-71
2023/04/03 04:19:33;;;;;;;28.77;5.22;;;;;;;;;;5075294;28;20032;-71
2023/04/03 04:21:59;;;;;;;15.57;4.93;;;;;;;;;;5074971;28;20112;-70
2023/04/03 04:24:25;;;;;;;14.90;4.55;;;;;;;;;;5075057;28;20044;-71
2023/04/03 04:26:51;;;;;;;19.98;4.30;;;;;;;;;;5075045;28;20020;-72
2023/04/03 04:29:17;;;;;;;15.85;5.63;;;;;;;;;;5074999;28;20020;-71
2023/04/03 04:31:43;;;;;;;19.35;5.95;;;;;;;;;;5074718;28;20494;-73
2023/04/03 04:34:09;;;;;;;23.08;6.65;;;;;;;;;;5074895;28;20024;-72
2023/04/03 04:36:35;;;;;;;20.05;5.05;;;;;;;;;;5074774;28;20024;-73
2023/04/03 04:39:01;;;;;;;16.30;5.65;;;;;;;;;;5074676;28;20121;-72
2023/04/03 04:41:27;;;;;;;17.77;5.78;;;;;;;;;;5075025;28;20024;-72
2023/04/03 04:43:53;;;;;;;19.63;4.60;;;;;;;;;;5074399;28;20021;-72
2023/04/03 04:46:19;;;;;;;16.58;4.07;;;;;;;;;;5075114;28;20504;-72
2023/04/03 04:48:45;;;;;;;23.15;4.60;;;;;;;;;;5074526;28;20036;-74
2023/04/03 04:51:11;;;;;;;17.73;4.82;;;;;;;;;;5074998;28;20029;-74
2023/04/03 04:53:37;;;;;;;21.05;4.85;;;;;;;;;;5074962;28;20121;-73
2023/04/03 04:56:04;;;;;;;21.10;5.32;;;;;;;;;;5074444;28;20103;-72
2023/04/03 04:58:30;;;;;;;12.27;4.70;;;;;;;;;;5074980;28;20122;-72
2023/04/03 05:01:03;;;;;;;22.15;5.18;;;;;;;;;;5075195;28;20040;-72
2023/04/03 05:03:29;;;;;;;17.55;4.78;;;;;;;;;;5075519;28;20021;-73
2023/04/03 05:05:55;;;;;;;22.23;5.88;;;;;;;;;;5076044;28;20031;-71
2023/04/03 05:08:21;;;;;;;13.93;5.22;;;;;;;;;;5074729;28;20048;-72
2023/04/03 05:10:47;;;;;;;18.05;5.03;;;;;;;;;;5074157;28;20076;-72
2023/04/03 05:13:13;;;;;;;20.25;6.15;;;;;;;;;;5073593;28;20035;-71
2023/04/03 05:15:39;;;;;;;15.90;4.90;;;;;;;;;;5074084;28;20048;-71
2023/04/03 05:18:05;;;;;;;23.35;4.60;;;;;;;;;;5073850;28;20063;-73
2023/04/03 05:20:32;;;;;;;20.20;5.82;;;;;;;;;;5072252;28;20025;-77
2023/04/03 05:22:58;;;;;;;31.58;14.40;;;;;;;;;;5066205;28;20024;-74
2023/04/03 05:25:24;;;;;;;16.65;6.40;;;;;;;;;;5065865;28;20024;-73
2023/04/03 05:27:50;;;;;;;16.05;6.60;;;;;;;;;;5064693;28;20028;-76
2023/04/03 05:30:17;;;;;;;19.73;6.55;;;;;;;;;;5063099;28;20108;-75
2023/04/03 05:32:43;;;;;;;28.52;9.80;;;;;;;;;;5063939;28;20396;-75
2023/04/03 05:35:09;;;;;;;23.10;8.85;;;;;;;;;;5065462;28;20029;-73
2023/04/03 05:37:35;;;;;;;15.82;6.70;;;;;;;;;;5064966;28;20029;-73
2023/04/03 05:40:02;;;;;;;19.98;6.07;;;;;;;;;;5060234;28;20025;-75
2023/04/03 05:42:28;;;;;;;15.43;5.32;;;;;;;;;;5066320;28;20051;-73
2023/04/03 05:44:54;;;;;;;19.60;6.45;;;;;;;;;;5062725;28;20024;-73
2023/04/03 05:47:20;;;;;;;19.42;5.50;;;;;;;;;;5046611;28;20099;-74
2023/04/03 05:49:46;;;;;;;18.15;5.40;;;;;;;;;;5071197;28;20503;-77
2023/04/03 05:52:17;;;;;;;28.05;6.28;;;;;;;;;;5062809;28;20083;-76
2023/04/03 05:54:44;;;;;;;23.35;6.45;;;;;;;;;;5064503;28;20056;-74
2023/04/03 05:57:11;;;;;;;22.50;8.25;;;;;;;;;;5061707;28;20122;-77
2023/04/03 05:59:37;;;;;;;24.35;6.70;;;;;;;;;;5063052;28;20120;-76
2023/04/03 06:02:03;;;;;;;20.25;6.10;;;;;;;;;;5064594;28;20063;-75
2023/04/03 06:04:29;;;;;;;24.10;7.82;;;;;;;;;;5067208;28;20055;-74
2023/04/03 06:07:00;;;;;;;25.75;7.32;;;;;;;;;;5066072;28;20028;-74
2023/04/03 06:09:28;;;;;;;23.15;8.15;;;;;;;;;;5059916;28;20025;-78
2023/04/03 06:11:55;;;;;;;21.75;7.28;;;;;;;;;;5066020;28;20020;-75
2023/04/03 06:14:21;;;;;;;26.25;5.40;;;;;;;;;;5066824;28;20028;-79
2023/04/03 06:16:48;;;;;;;27.00;5.43;;;;;;;;;;5060654;28;20025;-73
2023/04/03 06:19:14;;;;;;;27.80;5.00;;;;;;;;;;5053820;28;20366;-74
2023/04/03 06:21:40;;;;;;;19.95;6.68;;;;;;;;;;5053032;28;20090;-72
2023/04/03 06:24:06;;;;;;;14.82;4.90;;;;;;;;;;5052598;28;20033;-75
2023/04/03 06:26:33;;;;;;;18.60;5.32;;;;;;;;;;5061594;28;20025;-72
2023/04/03 06:28:59;;;;;;;21.40;4.65;;;;;;;;;;5052710;28;20379;-72
2023/04/03 06:31:25;;;;;;;16.30;4.50;;;;;;;;;;5052478;28;20040;-73
2023/04/03 06:33:51;;;;;;;15.77;4.90;;;;;;;;;;5052237;28;20025;-75
2023/04/03 06:36:22;;;;;;;14.93;4.75;;;;;;;;;;5052667;28;20434;-74
2023/04/03 06:38:48;;;;;;;28.90;11.93;;;;;;;;;;5052448;28;20043;-75
2023/04/03 06:41:14;;;;;;;22.52;5.90;;;;;;;;;;5062177;28;20052;-73
2023/04/03 06:43:40;;;;;;;22.33;4.85;;;;;;;;;;5072294;28;20450;-74
2023/04/03 06:46:06;;;;;;;19.15;4.80;;;;;;;;;;5072285;28;20021;-76
2023/04/03 06:48:32;;;;;;;23.02;4.88;;;;;;;;;;5072253;28;20393;-74
2023/04/03 06:50:58;;;;;;;11.80;3.78;;;;;;;;;;5072153;28;20036;-73
2023/04/03 06:53:24;;;;;;;13.35;4.53;;;;;;;;;;5071667;28;20028;-73
2023/04/03 06:55:50;;;;;;;27.13;5.00;;;;;;;;;;5071800;28;20482;-74
2023/04/03 06:58:17;;;;;;;17.92;4.70;;;;;;;;;;5072000;28;20044;-73
2023/04/03 07:00:43;;;;;;;12.52;3.92;;;;;;;;;;5071850;28;20035;-74
2023/04/03 07:03:09;;;;;;;17.35;3.75;;;;;;;;;;5071897;28;20025;-74
2023/04/03 07:05:35;;;;;;;19.60;4.00;;;;;;;;;;5071925;28;20110;-74
2023/04/03 07:08:01;;;;;;;14.10;3.85;;;;;;;;;;5071873;28;20482;-73
2023/04/03 07:10:27;;;;;;;16.50;4.13;;;;;;;;;;5071893;28;20020;-74
2023/04/03 07:12:53;;;;;;;16.25;3.97;;;;;;;;;;5071777;28;20024;-73
2023/04/03 07:15:19;;;;;;;16.08;3.45;;;;;;;;;;5070563;28;20024;-71
2023/04/03 07:17:46;;;;;;;16.80;3.58;;;;;;;;;;5072805;28;20470;-75
2023/04/03 07:20:12;;;;;;;13.00;3.80;;;;;;;;;;5072009;28;20078;-71
2023/04/03 07:22:38;;;;;;;12.23;3.58;;;;;;;;;;5071764;28;20086;-73
2023/04/03 07:25:06;;;;;;;15.90;3.78;;;;;;;;;;5072306;28;20058;-72
2023/04/03 07:27:33;;;;;;;14.50;5.13;;;;;;;;;;5071740;28;20392;-72
2023/04/03 07:29:59;;;;;;;17.13;5.00;;;;;;;;;;5071758;28;20029;-72
2023/04/03 07:32:25;;;;;;;13.27;2.88;;;;;;;;;;5053414;28;20028;-73
2023/04/03 07:34:51;;;;;;;15.70;2.92;;;;;;;;;;5072273;28;20025;-71
2023/04/03 07:37:17;;;;;;;17.00;3.10;;;;;;;;;;5071889;28;20024;-71
2023/04/03 07:39:44;;;;;;;17.90;4.50;;;;;;;;;;5073337;28;20030;-73
2023/04/03 07:42:12;;;;;;;11.07;2.10;;;;;;;;;;5074271;28;20386;-72
2023/04/03 07:44:38;;;;;;;18.27;2.20;;;;;;;;;;5074845;28;20040;-73
2023/04/03 07:47:04;;;;;;;6.60;1.95;;;;;;;;;;5073243;28;20105;-72
2023/04/03 07:49:30;;;;;;;13.88;4.28;;;;;;;;;;5073106;28;20054;-73
2023/04/03 07:51:56;;;;;;;10.20;2.22;;;;;;;;;;5072707;28;20036;-73
2023/04/03 07:54:22;;;;;;;11.63;2.22;;;;;;;;;;5072692;28;20034;-72
2023/04/03 07:56:48;;;;;;;8.05;1.85;;;;;;;;;;5072142;28;20044;-72
2023/04/03 07:59:14;;;;;;;15.18;2.20;;;;;;;;;;5071373;28;20021;-72
2023/04/03 08:01:40;;;;;;;8.48;1.60;;;;;;;;;;5071763;28;20363;-73
2023/04/03 08:04:07;;;;;;;6.25;2.00;;;;;;;;;;5071224;28;20060;-71
2023/04/03 08:06:36;;;;;;;6.72;1.90;;;;;;;;;;5071289;28;20031;-71
2023/04/03 08:09:03;;;;;;;7.53;1.52;;;;;;;;;;5071574;28;20505;-72
2023/04/03 08:11:30;;;;;;;10.32;2.05;;;;;;;;;;5071452;28;20389;-71
2023/04/03 08:13:57;;;;;;;12.75;2.20;;;;;;;;;;5069331;28;20021;-70
2023/04/03 08:16:26;;;;;;;11.48;3.40;;;;;;;;;;5071363;28;20452;-72
2023/04/03 08:18:52;;;;;;;27.00;2.28;;;;;;;;;;5070962;28;20043;-72
2023/04/03 08:21:18;;;;;;;13.32;2.22;;;;;;;;;;5071134;28;20123;-71
2023/04/03 08:23:44;;;;;;;11.25;2.30;;;;;;;;;;5070701;28;20020;-71
2023/04/03 08:26:12;;;;;;;9.52;2.03;;;;;;;;;;5071213;28;20031;-71
2023/04/03 08:28:38;;;;;;;5.53;1.80;;;;;;;;;;5070715;28;20133;-73
2023/04/03 08:31:05;;;;;;;8.40;1.85;;;;;;;;;;5070711;28;20376;-72
2023/04/03 08:33:32;;;;;;;9.52;2.10;;;;;;;;;;5070458;28;20035;-73
2023/04/03 08:35:58;;;;;;;7.82;2.13;;;;;;;;;;5071248;28;20067;-72
2023/04/03 08:38:24;;;;;;;10.63;2.17;;;;;;;;;;5071252;28;20082;-72
2023/04/03 08:41:11;;;;;;;8.98;2.10;;;;;;;;;;5071108;28;20028;-72
2023/04/03 08:43:57;;;;;;;17.92;4.93;;;;;;;;;;5053592;28;20075;-72
2023/04/03 08:46:25;;;;;;;10.57;1.85;;;;;;;;;;5020116;28;20028;-72
2023/04/03 08:48:52;;;;;;;13.18;1.92;;;;;;;;;;5070762;28;20082;-72
2023/04/03 08:51:20;;;;;;;9.40;1.88;;;;;;;;;;5070867;28;20032;-71
2023/04/03 08:53:57;;;;;;;14.20;2.17;;;;;;;;;;5070268;28;20033;-72
2023/04/03 08:56:25;;;;;;;8.82;1.77;;;;;;;;;;5073476;28;20036;-72
2023/04/03 08:58:56;;;;;;;6.47;1.77;;;;;;;;;;5074274;28;20039;-71
2023/04/03 09:01:26;;;;;;;9.35;1.88;;;;;;;;;;5074326;28;20462;-72
2023/04/03 09:03:52;;;;;;;9.00;1.50;;;;;;;;;;5074084;28;20095;-71
2023/04/03 09:06:22;;;;;;;8.55;2.33;;;;;;;;;;5074553;28;20071;-76
2023/04/03 09:09:08;;;;;;;7.93;1.90;;;;;;;;;;5073723;28;20029;-72
2023/04/03 09:11:36;;;;;;;9.77;1.77;;;;;;;;;;5073787;28;20032;-73
2023/04/03 09:14:17;;;;;;;8.48;2.28;;;;;;;;;;5073818;28;20032;-73
2023/04/03 09:16:57;;;;;;;7.30;1.80;;;;;;;;;;5074226;28;20043;-70
2023/04/03 09:19:23;;;;;;;10.07;1.85;;;;;;;;;;5074416;28;20028;-73
2023/04/03 09:21:49;;;;;;;6.22;1.85;;;;;;;;;;5074012;28;20150;-74
2023/04/03 09:24:16;;;;;;;8.30;1.67;;;;;;;;;;5074100;28;20016;-73
2023/04/03 09:26:45;;;;;;;8.15;1.45;;;;;;;;;;5074172;28;20103;-73
2023/04/03 09:29:16;;;;;;;4.65;1.30;;;;;;;;;;5074401;28;20027;-73
2023/04/03 09:31:43;;;;;;;5.13;2.00;;;;;;;;;;5073790;28;20067;-72
2023/04/03 09:34:21;;;;;;;6.30;1.48;;;;;;;;;;5074392;28;20032;-74
2023/04/03 09:36:49;;;;;;;9.07;1.90;;;;;;;;;;5074336;28;20111;-72
2023/04/03 09:39:17;;;;;;;6.90;1.52;;;;;;;;;;5073844;28;20033;-73
2023/04/03 09:41:55;;;;;;;9.90;1.80;;;;;;;;;;5073677;28;20029;-73
2023/04/03 09:44:23;;;;;;;7.28;1.80;;;;;;;;;;5073762;28;20024;-74
2023/04/03 09:46:49;;;;;;;5.50;1.48;;;;;;;;;;5073628;28;20384;-75
2023/04/03 09:49:15;;;;;;;4.97;2.13;;;;;;;;;;5073650;28;20070;-72
2023/04/03 09:51:42;;;;;;;10.50;1.73;;;;;;;;;;5073435;28;20029;-72
2023/04/03 09:54:27;;;;;;;5.75;1.30;;;;;;;;;;5073614;28;20117;-71
2023/04/03 09:56:53;;;;;;;;;;;;;;;;;;5073704;28;20443;-72
2023/04/03 09:59:19;;;;;;;4.93;1.85;;;;;;;;;;5073341;28;20339;-72
2023/04/03 10:01:59;;;;;;;7.47;2.08;;;;;;;;;;5072976;28;20048;-72
2023/04/03 10:04:25;;;;;;;4.40;1.63;;;;;;;;;;5073373;28;20024;-72
2023/04/03 10:06:52;;;;;;;7.03;2.10;;;;;;;;;;5072105;28;20021;-71
2023/04/03 10:09:19;;;;;;;12.13;4.80;;;;;;;;;;5072868;28;20074;-71
2023/04/03 10:12:05;;;;;;;8.02;2.17;;;;;;;;;;5073228;28;20111;-76
2023/04/03 10:14:32;;;;;;;7.03;1.20;;;;;;;;;;5073241;28;20124;-70
2023/04/03 10:17:08;;;;;;;9.48;3.00;;;;;;;;;;5073603;28;20051;-75
2023/04/03 10:19:48;;;;;;;7.13;2.00;;;;;;;;;;5074027;28;20482;-73
2023/04/03 10:22:24;;;;;;;5.85;1.30;;;;;;;;;;5073197;28;20052;-71
2023/04/03 10:25:16;;;;;;;6.65;1.63;;;;;;;;;;5072914;28;20063;-71
2023/04/03 10:28:01;;;;;;;6.68;1.95;;;;;;;;;;5034651;28;20124;-72
2023/04/03 10:30:27;;;;;;;5.63;1.90;;;;;;;;;;5072593;28;20120;-72
2023/04/03 10:32:53;;;;;;;6.20;1.77;;;;;;;;;;5072498;28;20024;-72
2023/04/03 10:35:31;;;;;;;5.78;2.00;;;;;;;;;;5073031;28;20070;-72
2023/04/03 10:37:57;;;;;;;10.60;2.35;;;;;;;;;;5072833;28;20020;-72
2023/04/03 10:40:43;;;;;;;5.97;1.58;;;;;;;;;;5073350;28;20463;-72
2023/04/03 10:43:16;;;;;;;10.60;2.30;;;;;;;;;;5072343;28;20085;-72
2023/04/03 10:45:54;;;;;;;9.85;1.63;;;;;;;;;;5073314;28;20083;-73
2023/04/03 10:48:32;;;;;;;4.82;1.85;;;;;;;;;;5072940;28;20039;-74
2023/04/03 10:51:07;;;;;;;5.68;2.40;;;;;;;;;;5072894;28;20035;-72
2023/04/03 10:53:45;;;;;;;13.35;2.22;;;;;;;;;;5073065;28;20031;-72
2023/04/03 10:56:50;;;;;;;6.80;2.55;;;;;;;;;;5072513;28;20032;-72
2023/04/03 10:59:33;;;;;;;8.60;1.58;;;;;;;;;;4971411;28;20560;-72
2023/04/03 11:02:06;;;;;;;7.53;1.73;;;;;;;;;;4971082;28;20046;-74
2023/04/03 11:04:37;;;;;;;8.07;2.13;;;;;;;;;;5035196;28;20478;-72
2023/04/03 11:07:04;;;;;;;5.53;2.00;;;;;;;;;;5071875;28;20028;-71
2023/04/03 11:09:32;;;;;;;9.88;1.70;;;;;;;;;;5071935;28;20021;-71
2023/04/03 11:12:03;;;;;;;4.55;1.50;;;;;;;;;;5071594;28;20036;-76
2023/04/03 11:14:32;;;;;;;6.80;1.73;;;;;;;;;;5060126;28;20395;-71
2023/04/03 11:17:12;;;;;;;6.45;1.88;;;;;;;;;;5051996;28;20031;-70
2023/04/03 11:19:56;;;;;;;9.13;1.75;;;;;;;;;;5051757;28;20033;-70
2023/04/03 11:22:34;;;;;;;5.85;2.00;;;;;;;;;;5053213;28;20033;-70
2023/04/03 11:25:12;;;;;;;6.43;1.80;;;;;;;;;;5071912;28;20013;-72
2023/04/03 11:27:42;;;;;;;5.07;1.60;;;;;;;;;;5071416;28;20032;-71
2023/04/03 11:30:13;;;;;;;6.10;2.05;;;;;;;;;;5071783;28;20386;-73
2023/04/03 11:32:39;;;;;;;11.77;2.00;;;;;;;;;;5071601;28;20430;-75
2023/04/03 11:35:07;;;;;;;4.88;1.55;;;;;;;;;;5072082;28;20032;-72
2023/04/03 11:37:39;;;;;;;6.07;1.58;;;;;;;;;;5071592;28;20021;-74
2023/04/03 11:40:08;;;;;;;7.32;1.60;;;;;;;;;;5071810;28;20032;-72
2023/04/03 11:42:37;;;;;;;5.20;1.70;;;;;;;;;;5071494;28;20048;-73
2023/04/03 11:45:21;;;;;;;6.70;1.50;;;;;;;;;;5071585;28;20482;-72
2023/04/03 11:47:49;;;;;;;7.07;1.58;;;;;;;;;;5071435;28;20070;-72
2023/04/03 11:50:39;;;;;;;4.55;1.52;;;;;;;;;;5071254;28;20048;-73
2023/04/03 11:53:08;;;;;;;5.47;1.52;;;;;;;;;;5058990;28;20032;-72
2023/04/03 11:55:35;;;;;;;6.68;1.75;;;;;;;;;;5071379;28;20025;-71
2023/04/03 11:58:01;;;;;;;4.10;1.55;;;;;;;;;;5071511;28;20029;-73
2023/04/03 12:00:49;;;;;;;6.32;1.60;;;;;;;;;;5071962;28;20497;-73
2023/04/03 12:03:24;;;;;;;8.20;1.45;;;;;;;;;;5071362;28;20034;-74
2023/04/03 12:05:51;;;;;;;6.00;1.60;;;;;;;;;;5073643;28;20027;-75
2023/04/03 12:08:26;;;;;;;5.43;1.23;;;;;;;;;;5072830;28;20048;-76
2023/04/03 12:11:11;;;;;;;8.30;1.50;;;;;;;;;;5073241;28;20032;-79
2023/04/03 12:13:40;;;;;;;5.63;1.50;;;;;;;;;;5072393;28;20020;-74
2023/04/03 12:16:07;;;;;;;3.28;1.33;;;;;;;;;;5072558;28;20032;-73
2023/04/03 12:18:52;;;;;;;3.58;1.35;;;;;;;;;;5071353;28;20112;-74
2023/04/03 12:21:22;;;;;;;7.00;1.55;;;;;;;;;;5071305;28;20039;-73
2023/04/03 12:24:11;;;;;;;6.55;1.42;;;;;;;;;;5071129;28;20107;-73
2023/04/03 12:26:59;;;;;;;5.60;1.75;;;18.60;99.90;;;;;;5058253;28;20093;-73
2023/04/03 12:29:29;;;;;;;8.13;1.48;;;;;;;;;;5072181;28;20047;-74
2023/04/03 12:32:07;;;;;;;4.78;1.40;;;22.60;99.90;;;;;;5075351;28;20065;-75
2023/04/03 12:34:43;;;;;;;7.65;2.00;;;22.50;99.90;;;;;;5075675;28;20402;-72
2023/04/03 12:37:15;;;;;;;5.78;1.40;;;23.30;99.90;;;;;;5075207;28;20107;-73
2023/04/03 12:40:01;;;;;;;4.35;1.75;;;23.30;99.90;;;;;;5075277;28;20032;-74
2023/04/03 12:42:53;;;;;;;7.53;1.77;;;;;;;;;;5074688;28;20024;-72
2023/04/03 12:45:23;;;;;;;4.72;1.73;;;;;;;;;;5036904;28;20501;-73
2023/04/03 12:47:53;;;;;;;4.13;1.52;;;;;;;;;;5075364;28;20023;-76
2023/04/03 12:50:23;;;;;;;4.28;1.58;;;;;;;;;;5075098;28;20331;-72
2023/04/03 12:52:59;;;;;;;4.43;1.30;;;;;;;;;;5076449;28;20025;-72
2023/04/03 12:55:26;;;;;;;6.10;1.70;;;;;;;;;;5075638;28;20165;-71
2023/04/03 12:57:52;;;;;;;7.22;1.70;;;;;;;;;;5075640;28;20039;-72
2023/04/03 13:00:30;;;;;;;7.07;1.73;;;23.10;99.90;;;;;;5075004;28;20067;-74
2023/04/03 13:02:56;;;;;;;3.33;1.38;;;;;;;;;;5074482;28;20029;-73
2023/04/03 13:05:23;;;;;;;5.85;1.67;;;23.30;99.90;;;;;;5074793;28;20024;-71
2023/04/03 13:08:12;;;;;;;6.20;1.38;;;23.50;99.90;;;;;;5074242;28;20390;-73
2023/04/03 13:11:03;;;;;;;5.63;1.40;;;23.80;99.90;;;;;;5070812;28;20050;-73
2023/04/03 13:13:29;;;;;;;8.00;1.65;;;23.90;99.90;;;;;;5072905;28;20024;-72
2023/04/03 13:15:55;;;;;;;5.45;1.85;;;24.40;99.90;;;;;;5074351;28;20024;-71
2023/04/03 13:18:23;;;;;;;6.30;1.63;;;24.70;99.90;;;;;;5074323;28;20043;-72
2023/04/03 13:20:49;;;;;;;6.55;1.40;;;24.80;99.90;;;;;;5074244;28;20021;-71
2023/04/03 13:23:18;;;;;;;5.18;1.63;;;24.50;99.90;;;;;;5073868;28;20489;-71
2023/04/03 13:25:45;;;;;;;7.38;1.58;;;23.80;99.90;;;;;;5074662;28;20469;-71
2023/04/03 13:28:15;;;;;;;3.72;1.27;;;23.30;99.90;;;;;;5074219;28;20492;-71
2023/04/03 13:30:53;;;;;;;6.88;1.70;;;23.30;99.90;;;;;;5073722;28;20024;-71
2023/04/03 13:33:23;;;;;;;4.55;1.48;;;23.70;99.90;;;;;;5073815;28;20028;-71
2023/04/03 13:36:00;;;;;;;5.65;1.45;;;24.50;99.90;;;;;;5074195;28;20029;-71
2023/04/03 13:38:31;;;;;;;8.10;1.95;;;25.20;99.90;;;;;;5074009;28;20020;-72
2023/04/03 13:41:00;;;;;;;5.78;1.55;;;25.20;99.90;;;;;;5073937;28;20420;-72
2023/04/03 13:43:28;;;;;;;5.07;1.67;;;25.40;99.90;;;;;;5073570;28;20104;-72
2023/04/03 13:46:21;;;;;;;7.25;1.40;;;25.00;99.90;;;;;;5073967;28;20025;-71
2023/04/03 13:48:52;;;;;;;7.43;1.75;;;24.40;99.90;;;;;;5055419;28;20016;-72
2023/04/03 13:51:26;;;;;;;6.22;1.52;;;;;;;;;;5073349;28;20040;-73
2023/04/03 13:53:52;;;;;;;5.47;1.48;;;;;;;;;;5073340;28;20025;-72
2023/04/03 13:56:30;;;;;;;4.38;1.52;;;;;;;;;;5073431;28;20025;-71
2023/04/03 13:59:02;;;;;;;10.30;2.20;;;;;;;;;;5073322;28;20043;-72
2023/04/03 14:01:34;;;;;;;5.72;1.85;;;;;;;;;;5073456;28;20188;-71
2023/04/03 14:04:10;;;;;;;7.40;1.83;;;;;;;;;;5073488;28;20063;-71
2023/04/03 14:06:36;;;;;;;4.38;1.55;;;;;;;;;;5073744;28;20040;-75
2023/04/03 14:09:03;;;;;;;5.32;1.40;;;;;;;;;;5073109;28;20032;-77
2023/04/03 14:11:30;;;;;;;3.63;1.33;;;;;;;;;;5073328;28;20032;-71
2023/04/03 14:13:58;;;;;;;5.97;1.73;;;;;;;;;;5073280;28;20018;-71
2023/04/03 14:16:27;;;;;;;7.63;1.90;;;;;;;;;;5073494;28;20389;-72
2023/04/03 14:18:53;;;;;;;12.55;1.52;;;;;;;;;;5073206;28;20430;-72
2023/04/03 14:21:21;;;;;;;8.80;2.20;;;;;;;;;;5073529;28;20024;-71
2023/04/03 14:23:47;;;;;;;7.03;1.80;;;;;;;;;;5072769;28;20021;-72
2023/04/03 14:26:16;;;;;;;5.35;1.92;;;;;;;;;;5073001;28;20431;-71
2023/04/03 14:28:42;;;;;;;7.57;1.98;;;;;;;;;;5072982;28;20032;-72
2023/04/03 14:31:08;;;;;;;9.75;2.80;;;;;;;;;;5072952;28;20027;-74
2023/04/03 14:33:35;;;;;;;9.35;2.58;;;;;;;;;;5073167;28;20068;-73
2023/04/03 14:36:02;;;;;;;6.50;2.10;;;;;;;;;;5055036;28;20044;-72
2023/04/03 14:38:29;;;;;;;8.95;2.25;;;;;;;;;;5073380;28;20112;-72